LiveATC.Net - Listen to live air traffic control over the Internet! Contact LiveATC.net for advertising information


ICAO: PHOG  IATA: OGG   Airport: Kahului Airport (Maui)
City: Kahului   State/Province: Hawaii
Country: United States   Continent: North America
PHOG METAR Weather: PHOG 162054Z 05016G23KT 10SM SCT026 SCT045 26/19 A3011 RMK AO2 PK WND 04026/1959 RAE1956B21E31 SLP201 P0000 60002 T02560194 50001 $
PHOG Flight Activity (FlightAware)
PHOG Airport Info   (AirNav) (iFlightPlanner)
PHOG Ground/Tower
Feed Status: DOWN
Last heard on: 2014-04-12 06:00:03 (4 days 15 hours 54 minutes ago)
PHOG Ground/Tower Audio Archives
FacilityFrequency
Maui Ground121.900
Maui Tower118.700


NOTICE

Unauthorized use prohibited. See LiveATC.net Terms of Service


Find LiveATC Audio Streams


Airport/ARTCC Code

Frequency
(e.g., 124.400, 128.75)
Site-wide search

Browse LiveATC Feeds
LiveATC Coverage Map
Top 50 LiveATC Feeds
Bad Weather Areas

LiveATC FAQ
Offer a LiveATC Feed
Contact LiveATC.net
Press Inquiries

LiveATC on iPhone
LiveATC on Android

LiveATC Mobile
(Mobile browser)

ATC Audio Archives
Interesting Recordings

LiveATC Forums


Home Page
About LiveATC.net
Make a Donation
LiveATC Bookstore

Terms of Use
Privacy Policy

ATC/Radar Sites
U.S. ARTCC Freqs
Canadian Air Freqs

AIRMETs/SIGMETs

FAA Airport Status
Nat'l Airspace Status
Arrival Demand Charts


Server Software By:
Icecast.org
Liquidsoap

Please make a donation to help us keep growing!